createdAt,value
2019-04-04T00:00:09.704Z,992.17
2019-04-04T00:01:09.695Z,992.10
2019-04-04T00:02:09.683Z,992.04
2019-04-04T00:03:09.674Z,992.10
2019-04-04T00:04:09.667Z,992.05
2019-04-04T00:05:09.665Z,992.04
2019-04-04T00:06:09.662Z,992.00
2019-04-04T00:07:09.648Z,991.99
2019-04-04T00:08:09.647Z,991.99
2019-04-04T00:09:09.637Z,992.03
2019-04-04T00:10:09.632Z,992.05
2019-04-04T00:11:09.624Z,992.05
2019-04-04T00:12:09.618Z,992.05
2019-04-04T00:13:11.213Z,992.08
2019-04-04T00:14:12.658Z,992.08
2019-04-04T00:15:09.599Z,992.07
2019-04-04T00:16:09.592Z,991.95
2019-04-04T00:17:09.586Z,991.87
2019-04-04T00:18:09.576Z,991.80
2019-04-04T00:19:09.568Z,991.81
2019-04-04T00:20:09.567Z,991.83
2019-04-04T00:21:09.552Z,991.81
2019-04-04T00:22:09.549Z,991.72
2019-04-04T00:23:09.537Z,991.69
2019-04-04T00:24:09.746Z,991.67
2019-04-04T00:25:10.406Z,991.66
2019-04-04T00:26:10.861Z,991.66
2019-04-04T00:27:11.221Z,991.70
2019-04-04T00:28:09.509Z,991.72
2019-04-04T00:29:09.498Z,991.79
2019-04-04T00:30:09.493Z,991.84
2019-04-04T00:31:09.485Z,991.82
2019-04-04T00:32:09.481Z,991.85
2019-04-04T00:33:09.472Z,991.93
2019-04-04T00:34:09.465Z,991.89
2019-04-04T00:35:09.460Z,991.88
2019-04-04T00:36:09.450Z,991.83
2019-04-04T00:37:09.449Z,991.83
2019-04-04T00:38:09.439Z,991.77
2019-04-04T00:39:09.966Z,991.75
2019-04-04T00:40:11.616Z,991.77
2019-04-04T00:41:11.025Z,991.78
2019-04-04T00:42:09.412Z,991.65
2019-04-04T00:43:09.408Z,991.60
2019-04-04T00:44:09.392Z,991.56
2019-04-04T00:45:09.390Z,991.51
2019-04-04T00:46:09.378Z,991.39
2019-04-04T00:47:09.370Z,991.33
2019-04-04T00:48:09.367Z,991.29
2019-04-04T00:49:09.361Z,991.24
2019-04-04T00:50:09.352Z,991.25
2019-04-04T00:51:09.345Z,991.26
2019-04-04T00:52:10.416Z,991.22
2019-04-04T00:53:09.912Z,991.19
2019-04-04T00:54:09.325Z,991.21
2019-04-04T00:55:09.347Z,991.28
2019-04-04T00:56:09.314Z,991.37
2019-04-04T00:57:09.302Z,991.43
2019-04-04T00:58:09.300Z,991.46
2019-04-04T00:59:09.293Z,991.50
2019-04-04T01:00:09.285Z,991.59
2019-04-04T01:01:09.275Z,991.68
2019-04-04T01:02:09.266Z,991.77
2019-04-04T01:03:09.264Z,991.89
2019-04-04T01:04:09.260Z,991.87
2019-04-04T01:05:09.245Z,991.82
2019-04-04T01:06:09.241Z,991.70
2019-04-04T01:07:09.234Z,991.64
2019-04-04T01:08:09.221Z,991.60
2019-04-04T01:09:13.082Z,991.58
2019-04-04T01:10:09.212Z,991.63
2019-04-04T01:11:09.204Z,991.69
2019-04-04T01:12:09.197Z,991.71
2019-04-04T01:13:09.190Z,991.67
2019-04-04T01:14:09.186Z,991.65
2019-04-04T01:15:09.178Z,991.56
2019-04-04T01:16:09.168Z,991.54
2019-04-04T01:17:09.159Z,991.49
2019-04-04T01:18:09.157Z,991.43
2019-04-04T01:19:09.961Z,991.43
2019-04-04T01:20:09.135Z,991.39
2019-04-04T01:21:09.133Z,991.42
2019-04-04T01:22:09.121Z,991.42
2019-04-04T01:23:09.119Z,991.43
2019-04-04T01:24:09.111Z,991.40
2019-04-04T01:25:09.101Z,991.35
2019-04-04T01:26:09.100Z,991.30
2019-04-04T01:27:09.084Z,991.26
2019-04-04T01:28:09.082Z,991.21
2019-04-04T01:29:10.935Z,991.27
2019-04-04T01:30:11.751Z,991.34
2019-04-04T01:31:09.058Z,991.38
2019-04-04T01:32:09.049Z,991.45
2019-04-04T01:33:09.049Z,991.43
2019-04-04T01:34:09.036Z,991.46
2019-04-04T01:35:09.031Z,991.42
2019-04-04T01:36:09.108Z,991.43
2019-04-04T01:37:09.021Z,991.39
2019-04-04T01:38:09.015Z,991.32
2019-04-04T01:39:08.999Z,991.28
2019-04-04T01:40:08.997Z,991.30
2019-04-04T01:41:08.991Z,991.38
2019-04-04T01:42:08.979Z,991.47
2019-04-04T01:43:09.820Z,991.52
2019-04-04T01:44:11.187Z,991.55
2019-04-04T01:45:08.958Z,991.47
2019-04-04T01:46:08.956Z,991.43
2019-04-04T01:47:08.944Z,991.38
2019-04-04T01:48:08.935Z,991.42
2019-04-04T01:49:08.931Z,991.45
2019-04-04T01:50:08.926Z,991.45
2019-04-04T01:51:08.920Z,991.46
2019-04-04T01:52:08.911Z,991.49
2019-04-04T01:53:08.900Z,991.49
2019-04-04T01:54:08.893Z,991.47
2019-04-04T01:55:08.891Z,991.43
2019-04-04T01:56:08.879Z,991.44
2019-04-04T01:57:08.884Z,991.47
2019-04-04T01:58:10.143Z,991.46
2019-04-04T01:59:10.203Z,991.42
2019-04-04T02:00:08.853Z,991.35
2019-04-04T02:01:08.841Z,991.37
2019-04-04T02:02:08.841Z,991.31
2019-04-04T02:03:08.832Z,991.30
2019-04-04T02:04:08.819Z,991.30
2019-04-04T02:05:08.818Z,991.32
2019-04-04T02:06:08.807Z,991.32
2019-04-04T02:07:08.804Z,991.30
2019-04-04T02:08:08.791Z,991.29
2019-04-04T02:09:08.786Z,991.26
2019-04-04T02:10:08.785Z,991.27
2019-04-04T02:11:08.776Z,991.25
2019-04-04T02:12:08.763Z,991.23
2019-04-04T02:13:09.958Z,991.21
2019-04-04T02:14:09.861Z,991.20
2019-04-04T02:15:08.738Z,991.16
2019-04-04T02:16:08.736Z,991.09
2019-04-04T02:17:08.727Z,991.03
2019-04-04T02:18:08.720Z,991.00
2019-04-04T02:19:08.710Z,990.95
2019-04-04T02:20:08.713Z,990.99
2019-04-04T02:21:08.699Z,991.03
2019-04-04T02:22:08.695Z,991.03
2019-04-04T02:23:08.686Z,991.01
2019-04-04T02:24:08.680Z,991.00
2019-04-04T02:25:08.673Z,990.97
2019-04-04T02:26:08.660Z,990.95
2019-04-04T02:27:08.655Z,990.89
2019-04-04T02:28:08.989Z,990.87
2019-04-04T02:29:10.745Z,990.90
2019-04-04T02:30:08.696Z,990.86
2019-04-04T02:31:08.700Z,990.86
2019-04-04T02:32:08.621Z,990.90
2019-04-04T02:33:08.630Z,990.91
2019-04-04T02:34:08.606Z,990.97
2019-04-04T02:35:10.627Z,990.93
2019-04-04T02:36:08.589Z,990.88
2019-04-04T02:37:08.579Z,990.86
2019-04-04T02:38:08.583Z,990.85
2019-04-04T02:39:08.567Z,990.82
2019-04-04T02:40:09.821Z,990.84
2019-04-04T02:41:08.556Z,990.87
2019-04-04T02:42:08.546Z,990.87
2019-04-04T02:44:08.525Z,990.93
2019-04-04T02:45:08.522Z,990.97
2019-04-04T02:46:11.078Z,990.95
2019-04-04T02:47:08.507Z,990.94
2019-04-04T02:48:08.504Z,990.87
2019-04-04T02:49:08.493Z,990.88
2019-04-04T02:50:08.487Z,990.89
2019-04-04T02:51:08.476Z,990.89
2019-04-04T02:52:12.801Z,990.92
2019-04-04T02:53:08.458Z,990.90
2019-04-04T02:54:08.455Z,990.91
2019-04-04T02:55:08.449Z,990.89
2019-04-04T02:56:08.444Z,990.89
2019-04-04T02:57:09.537Z,990.83
2019-04-04T02:58:08.428Z,990.85
2019-04-04T02:59:08.427Z,990.77
2019-04-04T03:00:08.407Z,990.80
2019-04-04T03:01:08.406Z,990.76
2019-04-04T03:02:08.399Z,990.73
2019-04-04T03:03:09.407Z,990.70
2019-04-04T03:04:08.384Z,990.64
2019-04-04T03:05:08.367Z,990.61
2019-04-04T03:06:08.362Z,990.58
2019-04-04T03:07:08.350Z,990.62
2019-04-04T03:08:08.352Z,990.67
2019-04-04T03:09:10.142Z,990.70
2019-04-04T03:10:08.331Z,990.66
2019-04-04T03:11:08.324Z,990.65
2019-04-04T03:12:08.322Z,990.68
2019-04-04T03:13:08.307Z,990.72
2019-04-04T03:14:08.301Z,990.72
2019-04-04T03:15:09.000Z,990.77
2019-04-04T03:16:08.293Z,990.79
2019-04-04T03:17:08.283Z,990.93
2019-04-04T03:18:08.280Z,990.94
2019-04-04T03:19:11.055Z,991.02
2019-04-04T03:20:08.257Z,991.00
2019-04-04T03:21:08.250Z,991.00
2019-04-04T03:22:08.243Z,990.86
2019-04-04T03:23:08.235Z,990.79
2019-04-04T03:24:08.233Z,990.69
2019-04-04T03:25:08.219Z,990.67
2019-04-04T03:26:08.217Z,990.65
2019-04-04T03:27:08.199Z,990.70
2019-04-04T03:28:08.208Z,990.70
2019-04-04T03:29:10.450Z,990.78
2019-04-04T03:30:13.324Z,990.92
2019-04-04T03:31:08.175Z,990.99
2019-04-04T03:32:13.576Z,991.01
2019-04-04T03:33:08.192Z,991.08
2019-04-04T03:34:11.252Z,991.04
2019-04-04T03:35:08.167Z,991.10
2019-04-04T03:36:08.182Z,991.14
2019-04-04T03:37:12.168Z,991.13
2019-04-04T03:38:08.123Z,991.11
2019-04-04T03:39:08.109Z,991.16
2019-04-04T03:40:08.105Z,991.19
2019-04-04T03:41:08.097Z,991.16
2019-04-04T03:42:08.331Z,991.19
2019-04-04T03:43:08.080Z,991.20
2019-04-04T03:44:08.078Z,991.26
2019-04-04T03:45:08.065Z,991.31
2019-04-04T03:46:08.071Z,991.35
2019-04-04T03:47:10.586Z,991.35
2019-04-04T03:48:08.048Z,991.33
2019-04-04T03:49:08.035Z,991.30
2019-04-04T03:50:08.028Z,991.25
2019-04-04T03:51:08.020Z,991.17
2019-04-04T03:52:11.244Z,991.17
2019-04-04T03:53:08.002Z,991.12
2019-04-04T03:54:07.999Z,991.08
2019-04-04T03:55:08.006Z,990.99
2019-04-04T03:56:07.980Z,990.94
2019-04-04T03:57:11.197Z,990.89
2019-04-04T03:58:07.968Z,990.88
2019-04-04T03:59:07.957Z,990.88
2019-04-04T04:00:08.024Z,990.77
2019-04-04T04:01:12.066Z,990.66
2019-04-04T04:02:07.931Z,990.61
2019-04-04T04:03:07.929Z,990.58
2019-04-04T04:04:07.928Z,990.60
2019-04-04T04:05:07.907Z,990.59
2019-04-04T04:06:08.952Z,990.67
2019-04-04T04:07:07.899Z,990.68
2019-04-04T04:08:07.889Z,990.74
2019-04-04T04:09:07.876Z,990.69
2019-04-04T04:10:07.875Z,990.67
2019-04-04T04:11:07.865Z,990.69
2019-04-04T04:12:11.136Z,990.75
2019-04-04T04:13:07.851Z,990.80
2019-04-04T04:14:07.853Z,990.87
2019-04-04T04:15:07.839Z,990.90
2019-04-04T04:16:07.819Z,990.97
2019-04-04T04:17:09.154Z,991.00
2019-04-04T04:18:07.823Z,990.98
2019-04-04T04:19:07.802Z,990.97
2019-04-04T04:20:07.796Z,990.95
2019-04-04T04:21:10.931Z,990.92
2019-04-04T04:22:07.777Z,990.90
2019-04-04T04:23:07.775Z,990.89
2019-04-04T04:24:07.758Z,990.87
2019-04-04T04:25:07.749Z,990.89
2019-04-04T04:26:09.464Z,990.90
2019-04-04T04:27:07.742Z,990.92
2019-04-04T04:28:07.736Z,990.94
2019-04-04T04:29:07.721Z,990.90
2019-04-04T04:30:07.761Z,990.94
2019-04-04T04:31:07.708Z,990.87
2019-04-04T04:32:07.694Z,990.84
2019-04-04T04:33:07.687Z,990.78
2019-04-04T04:34:07.789Z,990.70
2019-04-04T04:35:09.002Z,990.66
2019-04-04T04:36:09.906Z,990.68
2019-04-04T04:37:07.662Z,990.71
2019-04-04T04:38:07.649Z,990.69
2019-04-04T04:39:07.638Z,990.72
2019-04-04T04:40:07.633Z,990.80
2019-04-04T04:41:07.629Z,990.85
2019-04-04T04:42:07.624Z,990.86
2019-04-04T04:43:07.612Z,990.84
2019-04-04T04:44:07.601Z,990.81
2019-04-04T04:45:11.019Z,990.78
2019-04-04T04:46:07.592Z,990.76
2019-04-04T04:47:07.582Z,990.75
2019-04-04T04:48:07.572Z,990.71
2019-04-04T04:49:07.564Z,990.62
2019-04-04T04:50:09.492Z,990.61
2019-04-04T04:51:11.502Z,990.61
2019-04-04T04:52:07.540Z,990.65
2019-04-04T04:53:07.530Z,990.70
2019-04-04T04:54:07.523Z,990.74
2019-04-04T04:55:07.518Z,990.75
2019-04-04T04:56:07.504Z,990.69
2019-04-04T04:57:07.498Z,990.67
2019-04-04T04:58:10.161Z,990.60
2019-04-04T04:59:07.488Z,990.52
2019-04-04T05:00:07.478Z,990.52
2019-04-04T05:01:07.471Z,990.60
2019-04-04T05:02:07.467Z,990.65
2019-04-04T05:03:07.453Z,990.61
2019-04-04T05:04:07.441Z,990.65
2019-04-04T05:05:07.435Z,990.62
2019-04-04T05:06:07.428Z,990.60
2019-04-04T05:07:08.156Z,990.56
2019-04-04T05:08:09.657Z,990.56
2019-04-04T05:09:07.402Z,990.55
2019-04-04T05:10:07.399Z,990.53
2019-04-04T05:11:07.386Z,990.56
2019-04-04T05:12:07.377Z,990.62
2019-04-04T05:13:07.373Z,990.63
2019-04-04T05:14:07.362Z,990.62
2019-04-04T05:15:07.352Z,990.63
2019-04-04T05:16:08.992Z,990.58
2019-04-04T05:17:08.107Z,990.56
2019-04-04T05:18:07.330Z,990.61
2019-04-04T05:19:07.324Z,990.60
2019-04-04T05:20:07.319Z,990.60
2019-04-04T05:21:07.322Z,990.61
2019-04-04T05:22:09.237Z,990.60
2019-04-04T05:23:07.288Z,990.62
2019-04-04T05:24:07.287Z,990.69
2019-04-04T05:25:08.703Z,990.73
2019-04-04T05:26:09.523Z,990.76
2019-04-04T05:27:07.276Z,990.73
2019-04-04T05:28:10.506Z,990.75
2019-04-04T05:29:07.256Z,990.73
2019-04-04T05:30:08.420Z,990.69
2019-04-04T05:31:07.224Z,990.66
2019-04-04T05:32:07.246Z,990.68
2019-04-04T05:33:07.212Z,990.66
2019-04-04T05:34:07.206Z,990.69
2019-04-04T05:35:07.199Z,990.68
2019-04-04T05:36:07.190Z,990.59
2019-04-04T05:37:07.909Z,990.50
2019-04-04T05:38:07.837Z,990.47
2019-04-04T05:39:07.173Z,990.45
2019-04-04T05:40:07.161Z,990.44
2019-04-04T05:41:07.151Z,990.50
2019-04-04T05:42:07.143Z,990.61
2019-04-04T05:43:07.177Z,990.72
2019-04-04T05:44:09.324Z,990.77
2019-04-04T05:45:07.127Z,990.87
2019-04-04T05:46:07.118Z,990.85
2019-04-04T05:47:07.114Z,990.88
2019-04-04T05:48:07.102Z,990.87
2019-04-04T05:49:08.280Z,990.88
2019-04-04T05:50:07.118Z,990.89
2019-04-04T05:51:07.071Z,990.85
2019-04-04T05:52:08.952Z,990.85
2019-04-04T05:53:07.091Z,990.96
2019-04-04T05:54:08.176Z,990.99
2019-04-04T05:55:10.081Z,991.08
2019-04-04T05:56:07.052Z,991.08
2019-04-04T05:57:07.026Z,991.13
2019-04-04T05:58:07.022Z,991.11
2019-04-04T05:59:07.018Z,991.11
2019-04-04T06:00:07.008Z,991.10
2019-04-04T06:01:06.996Z,991.08
2019-04-04T06:02:06.994Z,991.01
2019-04-04T06:03:06.986Z,991.04
2019-04-04T06:04:06.991Z,990.98
2019-04-04T06:05:06.972Z,990.94
2019-04-04T06:06:06.983Z,990.98
2019-04-04T06:07:06.956Z,990.98
2019-04-04T06:08:08.190Z,990.99
2019-04-04T06:09:06.953Z,991.07
2019-04-04T06:10:06.932Z,991.11
2019-04-04T06:11:06.918Z,991.12
2019-04-04T06:12:06.915Z,991.17
2019-04-04T06:13:06.911Z,991.23
2019-04-04T06:14:06.901Z,991.22
2019-04-04T06:15:06.888Z,991.23
2019-04-04T06:16:06.887Z,991.18
2019-04-04T06:17:07.243Z,991.09
2019-04-04T06:18:06.870Z,991.06
2019-04-04T06:20:06.858Z,990.99
2019-04-04T06:21:06.854Z,990.97
2019-04-04T06:22:06.846Z,990.99
2019-04-04T06:23:06.829Z,990.99
2019-04-04T06:24:06.827Z,991.03
2019-04-04T06:25:06.831Z,991.08
2019-04-04T06:26:07.752Z,991.10
2019-04-04T06:27:07.080Z,991.14
2019-04-04T06:28:06.796Z,991.17
2019-04-04T06:29:06.788Z,991.14
2019-04-04T06:30:06.781Z,991.13
2019-04-04T06:31:06.778Z,991.08
2019-04-04T06:32:06.767Z,991.04
2019-04-04T06:33:06.772Z,991.03
2019-04-04T06:34:10.173Z,991.02
2019-04-04T06:35:06.742Z,991.01
2019-04-04T06:36:06.741Z,990.98
2019-04-04T06:37:06.732Z,991.01
2019-04-04T06:38:06.726Z,991.05
2019-04-04T06:39:06.717Z,991.05
2019-04-04T06:40:06.707Z,991.05
2019-04-04T06:41:06.703Z,991.08
2019-04-04T06:42:06.693Z,991.11
2019-04-04T06:43:10.605Z,991.12
2019-04-04T06:44:06.675Z,991.06
2019-04-04T06:45:06.677Z,991.00
2019-04-04T06:46:06.665Z,990.92
2019-04-04T06:47:06.658Z,990.81
2019-04-04T06:48:06.655Z,990.78
2019-04-04T06:49:06.640Z,990.76
2019-04-04T06:50:08.096Z,990.87
2019-04-04T06:51:06.624Z,990.97
2019-04-04T06:52:09.229Z,991.09
2019-04-04T06:53:06.650Z,991.14
2019-04-04T06:54:06.611Z,991.16
2019-04-04T06:55:06.603Z,991.19
2019-04-04T06:56:06.594Z,991.21
2019-04-04T06:57:06.589Z,991.24
2019-04-04T06:58:09.363Z,991.27
2019-04-04T06:59:06.569Z,991.29
2019-04-04T07:00:06.559Z,991.37
2019-04-04T07:01:06.561Z,991.42
2019-04-04T07:02:06.548Z,991.45
2019-04-04T07:03:06.545Z,991.46
2019-04-04T07:04:06.532Z,991.46
2019-04-04T07:05:06.984Z,991.41
2019-04-04T07:06:08.063Z,991.44
2019-04-04T07:07:06.510Z,991.45
2019-04-04T07:08:06.510Z,991.48
2019-04-04T07:09:06.502Z,991.47
2019-04-04T07:10:06.489Z,991.48
2019-04-04T07:11:15.615Z,991.47
2019-04-04T07:12:07.143Z,991.45
2019-04-04T07:13:20.935Z,991.48
2019-04-04T07:14:06.474Z,991.43
2019-04-04T07:15:06.457Z,991.46
2019-04-04T07:16:08.122Z,991.47
2019-04-04T07:17:08.776Z,991.47
2019-04-04T07:18:06.431Z,991.52
2019-04-04T07:19:08.111Z,991.58
2019-04-04T07:20:06.414Z,991.62
2019-04-04T07:21:06.413Z,991.68
2019-04-04T07:22:06.410Z,991.72
2019-04-04T07:23:06.391Z,991.69
2019-04-04T07:24:06.389Z,991.72
2019-04-04T07:25:06.863Z,991.72
2019-04-04T07:26:06.377Z,991.73
2019-04-04T07:27:06.367Z,991.69
2019-04-04T07:28:06.359Z,991.70
2019-04-04T07:29:06.353Z,991.69
2019-04-04T07:30:06.353Z,991.72
2019-04-04T07:31:06.339Z,991.71
2019-04-04T07:32:07.274Z,991.75
2019-04-04T07:33:06.322Z,991.69
2019-04-04T07:34:06.315Z,991.69
2019-04-04T07:35:06.301Z,991.68
2019-04-04T07:36:06.298Z,991.67
2019-04-04T07:37:06.288Z,991.69
2019-04-04T07:38:06.282Z,991.66
2019-04-04T07:39:06.277Z,991.67
2019-04-04T07:40:06.274Z,991.66
2019-04-04T07:41:08.394Z,991.67
2019-04-04T07:42:06.258Z,991.72
2019-04-04T07:43:08.614Z,991.71
2019-04-04T07:44:06.241Z,991.74
2019-04-04T07:45:06.230Z,991.74
2019-04-04T07:46:16.397Z,991.69
2019-04-04T07:47:06.212Z,991.70
2019-04-04T07:48:06.214Z,991.67
2019-04-04T07:49:06.204Z,991.65
2019-04-04T07:50:06.192Z,991.67
2019-04-04T07:51:06.191Z,991.64
2019-04-04T07:52:06.181Z,991.72
2019-04-04T07:53:06.174Z,991.69
2019-04-04T07:54:07.389Z,991.73
2019-04-04T07:55:06.228Z,991.79
2019-04-04T07:56:06.146Z,991.80
2019-04-04T07:57:06.146Z,991.84
2019-04-04T07:58:06.138Z,991.91
2019-04-04T07:59:06.127Z,991.92
2019-04-04T08:00:06.119Z,991.93
2019-04-04T08:01:06.117Z,991.94
2019-04-04T08:02:06.111Z,991.92
2019-04-04T08:03:06.104Z,991.91
2019-04-04T08:04:06.790Z,991.94
2019-04-04T08:05:06.091Z,991.92
2019-04-04T08:06:06.081Z,991.99
2019-04-04T08:07:06.073Z,991.98
2019-04-04T08:08:06.058Z,991.93
2019-04-04T08:09:06.054Z,991.94
2019-04-04T08:10:06.045Z,991.97
2019-04-04T08:11:06.042Z,991.98
2019-04-04T08:12:06.031Z,992.00
2019-04-04T08:13:06.022Z,992.05
2019-04-04T08:14:06.025Z,992.02
2019-04-04T08:15:06.009Z,992.02
2019-04-04T08:16:06.014Z,992.01
2019-04-04T08:17:05.998Z,992.01
2019-04-04T08:18:05.993Z,991.96
2019-04-04T08:19:05.984Z,991.97
2019-04-04T08:20:05.979Z,991.96
2019-04-04T08:21:06.001Z,992.00
2019-04-04T08:22:06.032Z,992.05
2019-04-04T08:23:05.948Z,992.05
2019-04-04T08:24:05.942Z,992.05
2019-04-04T08:25:05.942Z,992.10
2019-04-04T08:26:05.931Z,992.07
2019-04-04T08:27:05.921Z,992.03
2019-04-04T08:28:05.914Z,992.03
2019-04-04T08:29:05.904Z,992.05
2019-04-04T08:30:05.900Z,992.09
2019-04-04T08:31:05.889Z,992.06
2019-04-04T08:32:05.883Z,992.07
2019-04-04T08:33:05.881Z,992.06
2019-04-04T08:34:05.871Z,992.08
2019-04-04T08:35:05.860Z,992.03
2019-04-04T08:36:06.662Z,992.02
2019-04-04T08:37:05.854Z,992.04
2019-04-04T08:38:05.844Z,992.12
2019-04-04T08:39:05.835Z,992.14
2019-04-04T08:40:05.828Z,992.14
2019-04-04T08:41:05.824Z,992.16
2019-04-04T08:42:05.815Z,992.17
2019-04-04T08:43:05.805Z,992.17
2019-04-04T08:44:05.796Z,992.21
2019-04-04T08:45:05.790Z,992.26
2019-04-04T08:46:05.811Z,992.22
2019-04-04T08:47:05.774Z,992.21
2019-04-04T08:48:05.771Z,992.22
2019-04-04T08:49:05.768Z,992.23
2019-04-04T08:50:05.755Z,992.24
2019-04-04T08:51:05.744Z,992.23
2019-04-04T08:52:16.165Z,992.26
2019-04-04T08:53:05.733Z,992.21
2019-04-04T08:54:05.787Z,992.25
2019-04-04T08:55:05.724Z,992.27
2019-04-04T08:56:05.714Z,992.26
2019-04-04T08:57:05.706Z,992.25
2019-04-04T08:58:05.697Z,992.28
2019-04-04T08:59:05.696Z,992.27
2019-04-04T09:00:05.685Z,992.24
2019-04-04T09:01:05.687Z,992.24
2019-04-04T09:02:05.676Z,992.23
2019-04-04T09:03:05.666Z,992.27
2019-04-04T09:04:05.656Z,992.26
2019-04-04T09:05:11.921Z,992.27
2019-04-04T09:06:05.649Z,992.27
2019-04-04T09:07:05.635Z,992.26
2019-04-04T09:08:05.629Z,992.25
2019-04-04T09:09:05.627Z,992.24
2019-04-04T09:10:05.621Z,992.28
2019-04-04T09:11:05.612Z,992.34
2019-04-04T09:12:05.602Z,992.30
2019-04-04T09:13:05.600Z,992.25
2019-04-04T09:14:05.591Z,992.24
2019-04-04T09:15:05.580Z,992.21
2019-04-04T09:16:05.578Z,992.17
2019-04-04T09:17:05.568Z,992.22
2019-04-04T09:18:05.562Z,992.24
2019-04-04T09:19:05.557Z,992.30
2019-04-04T09:20:05.550Z,992.32
2019-04-04T09:21:05.544Z,992.43
2019-04-04T09:22:05.535Z,992.44
2019-04-04T09:23:05.578Z,992.46
2019-04-04T09:24:05.530Z,992.44
2019-04-04T09:25:05.528Z,992.35
2019-04-04T09:26:06.397Z,992.27
2019-04-04T09:27:05.505Z,992.29
2019-04-04T09:28:05.502Z,992.31
2019-04-04T09:29:05.493Z,992.28
2019-04-04T09:30:05.487Z,992.30
2019-04-04T09:31:05.475Z,992.23
2019-04-04T09:32:05.469Z,992.27
2019-04-04T09:33:05.468Z,992.31
2019-04-04T09:34:05.460Z,992.33
2019-04-04T09:35:05.455Z,992.36
2019-04-04T09:36:05.449Z,992.36
2019-04-04T09:37:08.650Z,992.41
2019-04-04T09:38:05.433Z,992.42
2019-04-04T09:39:05.434Z,992.43
2019-04-04T09:40:05.422Z,992.46
2019-04-04T09:41:05.413Z,992.48
2019-04-04T09:42:05.408Z,992.43
2019-04-04T09:43:05.406Z,992.39
2019-04-04T09:44:06.238Z,992.42
2019-04-04T09:45:05.389Z,992.35
2019-04-04T09:46:05.393Z,992.32
2019-04-04T09:47:05.961Z,992.33
2019-04-04T09:48:05.380Z,992.32
2019-04-04T09:49:05.373Z,992.32
2019-04-04T09:50:05.369Z,992.29
2019-04-04T09:51:05.360Z,992.31
2019-04-04T09:52:05.349Z,992.34
2019-04-04T09:53:05.342Z,992.33
2019-04-04T09:54:05.341Z,992.35
2019-04-04T09:55:05.338Z,992.30
2019-04-04T09:56:05.331Z,992.35
2019-04-04T09:57:05.320Z,992.36
2019-04-04T09:58:05.317Z,992.32
2019-04-04T09:59:05.315Z,992.30
2019-04-04T10:00:05.306Z,992.31
2019-04-04T10:01:06.718Z,992.23
2019-04-04T10:02:05.295Z,992.24
2019-04-04T10:03:05.680Z,992.23
2019-04-04T10:04:05.290Z,992.26
2019-04-04T10:05:06.094Z,992.27
2019-04-04T10:06:05.277Z,992.29
2019-04-04T10:07:05.265Z,992.35
2019-04-04T10:08:05.263Z,992.33
2019-04-04T10:09:15.118Z,992.37
2019-04-04T10:10:05.465Z,992.36
2019-04-04T10:11:05.244Z,992.34
2019-04-04T10:12:05.659Z,992.36
2019-04-04T10:13:05.236Z,992.39
2019-04-04T10:14:05.234Z,992.41
2019-04-04T10:15:05.229Z,992.41
2019-04-04T10:16:05.221Z,992.35
2019-04-04T10:17:05.219Z,992.34
2019-04-04T10:18:05.208Z,992.34
2019-04-04T10:19:05.208Z,992.34
2019-04-04T10:20:05.207Z,992.32
2019-04-04T10:21:11.832Z,992.34
2019-04-04T10:22:05.195Z,992.36
2019-04-04T10:23:05.187Z,992.41
2019-04-04T10:24:05.185Z,992.39
2019-04-04T10:25:05.178Z,992.36
2019-04-04T10:26:05.173Z,992.45
2019-04-04T10:27:05.158Z,992.45
2019-04-04T10:28:05.199Z,992.46
2019-04-04T10:29:05.150Z,992.46
2019-04-04T10:30:05.147Z,992.41
2019-04-04T10:31:05.142Z,992.34
2019-04-04T10:32:05.137Z,992.31
2019-04-04T10:33:05.126Z,992.29
2019-04-04T10:34:05.131Z,992.32
2019-04-04T10:35:05.134Z,992.32
2019-04-04T10:36:05.118Z,992.37
2019-04-04T10:37:05.111Z,992.41
2019-04-04T10:38:05.098Z,992.46
2019-04-04T10:39:05.100Z,992.44
2019-04-04T10:40:05.094Z,992.41
2019-04-04T10:41:05.086Z,992.36
2019-04-04T10:42:05.075Z,992.35
2019-04-04T10:43:05.069Z,992.37
2019-04-04T10:44:05.066Z,992.40
2019-04-04T10:45:05.066Z,992.42
2019-04-04T10:46:05.055Z,992.40
2019-04-04T10:47:05.045Z,992.41
2019-04-04T10:48:05.040Z,992.40
2019-04-04T10:49:08.122Z,992.41
2019-04-04T10:50:05.036Z,992.41
2019-04-04T10:51:05.027Z,992.45
2019-04-04T10:52:05.022Z,992.41
2019-04-04T10:53:05.019Z,992.40
2019-04-04T10:54:05.011Z,992.41
2019-04-04T10:55:05.000Z,992.45
2019-04-04T10:56:04.999Z,992.44
2019-04-04T10:57:04.996Z,992.44
2019-04-04T10:58:04.992Z,992.42
2019-04-04T10:59:04.979Z,992.41
2019-04-04T11:00:04.977Z,992.39
2019-04-04T11:01:04.973Z,992.42
2019-04-04T11:02:04.966Z,992.42
2019-04-04T11:03:04.961Z,992.46
2019-04-04T11:04:04.948Z,992.46
2019-04-04T11:05:04.947Z,992.48
2019-04-04T11:06:04.946Z,992.48
2019-04-04T11:07:04.940Z,992.48
2019-04-04T11:08:04.927Z,992.52
2019-04-04T11:09:04.922Z,992.49
2019-04-04T11:10:04.923Z,992.48
2019-04-04T11:11:04.912Z,992.46
2019-04-04T11:12:04.911Z,992.43
2019-04-04T11:13:04.904Z,992.42
2019-04-04T11:14:04.902Z,992.42
2019-04-04T11:15:04.892Z,992.46
2019-04-04T11:16:04.887Z,992.41
2019-04-04T11:17:04.881Z,992.41
2019-04-04T11:18:04.875Z,992.39
2019-04-04T11:19:04.871Z,992.33
2019-04-04T11:20:04.862Z,992.31
2019-04-04T11:21:04.859Z,992.32
2019-04-04T11:22:04.869Z,992.25
2019-04-04T11:23:04.865Z,992.21
2019-04-04T11:24:04.848Z,992.20
2019-04-04T11:25:04.849Z,992.20
2019-04-04T11:26:04.835Z,992.20
2019-04-04T11:27:04.828Z,992.19
2019-04-04T11:28:04.820Z,992.16
2019-04-04T11:29:04.838Z,992.11
2019-04-04T11:30:04.812Z,992.14
2019-04-04T11:31:04.808Z,992.12
2019-04-04T11:32:04.805Z,992.10
2019-04-04T11:33:04.794Z,992.14
2019-04-04T11:34:04.797Z,992.15
2019-04-04T11:35:04.783Z,992.22
2019-04-04T11:36:04.779Z,992.31
2019-04-04T11:37:04.778Z,992.36
2019-04-04T11:38:04.770Z,992.42
2019-04-04T11:39:04.761Z,992.49
2019-04-04T11:40:04.755Z,992.52
2019-04-04T11:41:04.761Z,992.51
2019-04-04T11:42:04.743Z,992.50
2019-04-04T11:43:04.742Z,992.46
2019-04-04T11:44:04.728Z,992.41
2019-04-04T11:45:04.731Z,992.41
2019-04-04T11:46:04.719Z,992.42
2019-04-04T11:47:04.711Z,992.42
2019-04-04T11:48:04.710Z,992.42
2019-04-04T11:49:04.710Z,992.46
2019-04-04T11:50:04.701Z,992.44
2019-04-04T11:51:04.693Z,992.42
2019-04-04T11:52:04.683Z,992.44
2019-04-04T11:53:04.679Z,992.45
2019-04-04T11:54:04.678Z,992.51
2019-04-04T11:55:04.686Z,992.52
2019-04-04T11:56:04.660Z,992.56
2019-04-04T11:57:04.659Z,992.60
2019-04-04T11:58:04.649Z,992.61
2019-04-04T11:59:04.645Z,992.64
2019-04-04T12:00:04.634Z,992.59
2019-04-04T12:01:04.630Z,992.58
2019-04-04T12:02:04.621Z,992.55
2019-04-04T12:03:04.620Z,992.57
2019-04-04T12:04:04.688Z,992.56
2019-04-04T12:05:04.610Z,992.58
2019-04-04T12:06:04.596Z,992.57
2019-04-04T12:07:04.589Z,992.56
2019-04-04T12:08:04.589Z,992.56
2019-04-04T12:09:04.577Z,992.58
2019-04-04T12:10:07.826Z,992.58
2019-04-04T12:11:04.569Z,992.55
2019-04-04T12:12:04.567Z,992.60
2019-04-04T12:13:04.560Z,992.59
2019-04-04T12:14:04.547Z,992.63
2019-04-04T12:15:04.548Z,992.61
2019-04-04T12:16:04.541Z,992.65
2019-04-04T12:17:04.528Z,992.65
2019-04-04T12:18:04.527Z,992.70
2019-04-04T12:19:04.516Z,992.70
2019-04-04T12:20:04.515Z,992.67
2019-04-04T12:21:04.507Z,992.69
2019-04-04T12:22:04.503Z,992.69
2019-04-04T12:23:04.498Z,992.69
2019-04-04T12:24:04.485Z,992.70
2019-04-04T12:25:04.482Z,992.69
2019-04-04T12:26:04.478Z,992.70
2019-04-04T12:27:04.466Z,992.71
2019-04-04T12:28:04.462Z,992.70
2019-04-04T12:29:04.455Z,992.78
2019-04-04T12:30:04.453Z,992.80